sensor_id;sensor_type;location;lat;lon;timestamp;pressure;altitude;pressure_sealevel;temperature;humidity
16194;BME280;8204;53.582;10.080;2022-10-16T00:01:46;98104.09;;;17.07;100.00
16194;BME280;8204;53.582;10.080;2022-10-16T00:04:17;98120.47;;;17.04;100.00
16194;BME280;8204;53.582;10.080;2022-10-16T00:06:46;98139.81;;;17.05;100.00
16194;BME280;8204;53.582;10.080;2022-10-16T00:09:16;98146.16;;;17.04;100.00
16194;BME280;8204;53.582;10.080;2022-10-16T00:11:45;98162.03;;;17.04;100.00
16194;BME280;8204;53.582;10.080;2022-10-16T00:14:14;98166.50;;;17.03;100.00
16194;BME280;8204;53.582;10.080;2022-10-16T00:16:46;98175.50;;;17.02;100.00
16194;BME280;8204;53.582;10.080;2022-10-16T00:19:17;98182.38;;;17.03;100.00
16194;BME280;8204;53.582;10.080;2022-10-16T00:21:46;98190.84;;;17.00;100.00
16194;BME280;8204;53.582;10.080;2022-10-16T00:24:15;98189.25;;;16.99;100.00
16194;BME280;8204;53.582;10.080;2022-10-16T00:26:44;98162.25;;;16.97;100.00
16194;BME280;8204;53.582;10.080;2022-10-16T00:29:12;98162.25;;;16.97;100.00
16194;BME280;8204;53.582;10.080;2022-10-16T00:31:41;98168.34;;;16.93;100.00
16194;BME280;8204;53.582;10.080;2022-10-16T00:34:10;98133.66;;;16.89;100.00
16194;BME280;8204;53.582;10.080;2022-10-16T00:36:41;98120.72;;;16.88;100.00
16194;BME280;8204;53.582;10.080;2022-10-16T00:39:10;98117.53;;;16.86;100.00
16194;BME280;8204;53.582;10.080;2022-10-16T00:41:39;98097.69;;;16.83;100.00
16194;BME280;8204;53.582;10.080;2022-10-16T00:47:08;98078.63;;;16.77;100.00
16194;BME280;8204;53.582;10.080;2022-10-16T00:49:38;98064.34;;;16.73;100.00
16194;BME280;8204;53.582;10.080;2022-10-16T00:52:10;98054.28;;;16.70;100.00
16194;BME280;8204;53.582;10.080;2022-10-16T00:54:39;98055.88;;;16.66;100.00
16194;BME280;8204;53.582;10.080;2022-10-16T00:57:08;98036.31;;;16.62;100.00
16194;BME280;8204;53.582;10.080;2022-10-16T00:59:38;98043.97;;;16.58;100.00
16194;BME280;8204;53.582;10.080;2022-10-16T01:02:11;98038.41;;;16.55;100.00
16194;BME280;8204;53.582;10.080;2022-10-16T01:04:42;98036.56;;;16.55;100.00
16194;BME280;8204;53.582;10.080;2022-10-16T01:07:20;98024.13;;;16.51;100.00
16194;BME280;8204;53.582;10.080;2022-10-16T01:09:59;98036.28;;;16.47;100.00
16194;BME280;8204;53.582;10.080;2022-10-16T01:12:38;98052.13;;;16.47;100.00
16194;BME280;8204;53.582;10.080;2022-10-16T01:15:13;98044.19;;;16.42;100.00
16194;BME280;8204;53.582;10.080;2022-10-16T01:17:49;98045.75;;;16.38;100.00
16194;BME280;8204;53.582;10.080;2022-10-16T01:20:27;98033.06;;;16.35;100.00
16194;BME280;8204;53.582;10.080;2022-10-16T01:23:08;98028.84;;;16.34;100.00
16194;BME280;8204;53.582;10.080;2022-10-16T01:26:11;98021.47;;;16.36;100.00
16194;BME280;8204;53.582;10.080;2022-10-16T01:28:47;98033.31;;;16.33;100.00
16194;BME280;8204;53.582;10.080;2022-10-16T01:31:19;98044.16;;;16.32;100.00
16194;BME280;8204;53.582;10.080;2022-10-16T01:33:56;98047.53;;;16.27;100.00
16194;BME280;8204;53.582;10.080;2022-10-16T01:36:33;98049.41;;;16.22;100.00
16194;BME280;8204;53.582;10.080;2022-10-16T01:39:05;98059.97;;;16.22;100.00
16194;BME280;8204;53.582;10.080;2022-10-16T01:41:41;98073.16;;;16.22;100.00
16194;BME280;8204;53.582;10.080;2022-10-16T01:44:17;98099.31;;;16.23;100.00
16194;BME280;8204;53.582;10.080;2022-10-16T01:46:50;98095.63;;;16.19;100.00
16194;BME280;8204;53.582;10.080;2022-10-16T01:49:21;98105.38;;;16.19;100.00
16194;BME280;8204;53.582;10.080;2022-10-16T01:51:54;98126.53;;;16.19;100.00
16194;BME280;8204;53.582;10.080;2022-10-16T01:54:25;98145.53;;;16.16;100.00
16194;BME280;8204;53.582;10.080;2022-10-16T01:56:56;98163.50;;;16.14;100.00
16194;BME280;8204;53.582;10.080;2022-10-16T01:59:30;98161.34;;;16.11;100.00
16194;BME280;8204;53.582;10.080;2022-10-16T02:02:03;98165.56;;;16.07;100.00
16194;BME280;8204;53.582;10.080;2022-10-16T02:04:37;98172.16;;;16.05;100.00
16194;BME280;8204;53.582;10.080;2022-10-16T02:07:08;98179.28;;;16.04;100.00
16194;BME280;8204;53.582;10.080;2022-10-16T02:09:37;98187.19;;;16.04;100.00
16194;BME280;8204;53.582;10.080;2022-10-16T02:12:10;98194.59;;;16.02;100.00
16194;BME280;8204;53.582;10.080;2022-10-16T02:14:42;98194.59;;;16.02;100.00
16194;BME280;8204;53.582;10.080;2022-10-16T02:17:12;98211.75;;;16.00;100.00
16194;BME280;8204;53.582;10.080;2022-10-16T02:19:42;98216.22;;;15.99;100.00
16194;BME280;8204;53.582;10.080;2022-10-16T02:22:16;98235.75;;;15.98;100.00
16194;BME280;8204;53.582;10.080;2022-10-16T02:24:51;98239.19;;;15.94;100.00
16194;BME280;8204;53.582;10.080;2022-10-16T02:27:25;98221.19;;;15.91;100.00
16194;BME280;8204;53.582;10.080;2022-10-16T02:30:03;98210.06;;;15.89;100.00
16194;BME280;8204;53.582;10.080;2022-10-16T02:32:37;98209.78;;;15.85;100.00
16194;BME280;8204;53.582;10.080;2022-10-16T02:35:08;98200.50;;;15.78;100.00
16194;BME280;8204;53.582;10.080;2022-10-16T02:37:38;98211.84;;;15.78;100.00
16194;BME280;8204;53.582;10.080;2022-10-16T02:40:10;98229.25;;;15.74;100.00
16194;BME280;8204;53.582;10.080;2022-10-16T02:42:40;98213.09;;;15.71;100.00
16194;BME280;8204;53.582;10.080;2022-10-16T02:45:12;98199.63;;;15.67;100.00
16194;BME280;8204;53.582;10.080;2022-10-16T02:47:40;98205.41;;;15.64;100.00
16194;BME280;8204;53.582;10.080;2022-10-16T02:50:09;98211.75;;;15.63;100.00
16194;BME280;8204;53.582;10.080;2022-10-16T02:52:38;98221.75;;;15.61;100.00
16194;BME280;8204;53.582;10.080;2022-10-16T02:55:07;98224.59;;;15.55;100.00
16194;BME280;8204;53.582;10.080;2022-10-16T02:57:36;98239.88;;;15.53;100.00
16194;BME280;8204;53.582;10.080;2022-10-16T03:00:07;98241.19;;;15.50;100.00
16194;BME280;8204;53.582;10.080;2022-10-16T03:02:39;98248.28;;;15.50;100.00
16194;BME280;8204;53.582;10.080;2022-10-16T03:05:08;98255.69;;;15.48;100.00
16194;BME280;8204;53.582;10.080;2022-10-16T03:07:37;98263.31;;;15.44;100.00
16194;BME280;8204;53.582;10.080;2022-10-16T03:10:07;98273.31;;;15.42;100.00
16194;BME280;8204;53.582;10.080;2022-10-16T03:12:36;98269.56;;;15.38;100.00
16194;BME280;8204;53.582;10.080;2022-10-16T03:15:06;98257.66;;;15.36;100.00
16194;BME280;8204;53.582;10.080;2022-10-16T03:17:35;98269.50;;;15.33;100.00
16194;BME280;8204;53.582;10.080;2022-10-16T03:20:07;98258.91;;;15.29;100.00
16194;BME280;8204;53.582;10.080;2022-10-16T03:22:36;98265.72;;;15.25;100.00
16194;BME280;8204;53.582;10.080;2022-10-16T03:25:05;98264.59;;;15.21;100.00
16194;BME280;8204;53.582;10.080;2022-10-16T03:27:34;98264.84;;;15.19;100.00
16194;BME280;8204;53.582;10.080;2022-10-16T03:30:04;98275.88;;;15.16;100.00
16194;BME280;8204;53.582;10.080;2022-10-16T03:32:33;98285.06;;;15.14;100.00
16194;BME280;8204;53.582;10.080;2022-10-16T03:35:02;98271.06;;;15.08;100.00
16194;BME280;8204;53.582;10.080;2022-10-16T03:37:33;98265.28;;;15.11;100.00
16194;BME280;8204;53.582;10.080;2022-10-16T03:40:03;98277.06;;;15.04;100.00
16194;BME280;8204;53.582;10.080;2022-10-16T03:42:32;98270.19;;;15.03;100.00
16194;BME280;8204;53.582;10.080;2022-10-16T03:45:00;98276.25;;;15.03;100.00
16194;BME280;8204;53.582;10.080;2022-10-16T03:47:29;98277.53;;;15.01;100.00
16194;BME280;8204;53.582;10.080;2022-10-16T03:49:59;98268.84;;;15.00;100.00
16194;BME280;8204;53.582;10.080;2022-10-16T03:52:28;98275.63;;;14.96;100.00
16194;BME280;8204;53.582;10.080;2022-10-16T03:55:00;98270.91;;;14.98;100.00
16194;BME280;8204;53.582;10.080;2022-10-16T03:57:29;98270.13;;;14.98;100.00
16194;BME280;8204;53.582;10.080;2022-10-16T03:59:57;98280.44;;;14.99;100.00
16194;BME280;8204;53.582;10.080;2022-10-16T04:02:26;98281.22;;;15.00;100.00
16194;BME280;8204;53.582;10.080;2022-10-16T04:04:55;98279.88;;;14.97;100.00
16194;BME280;8204;53.582;10.080;2022-10-16T04:07:24;98261.66;;;14.96;100.00
16194;BME280;8204;53.582;10.080;2022-10-16T04:09:52;98285.66;;;14.94;100.00
16194;BME280;8204;53.582;10.080;2022-10-16T04:12:25;98302.25;;;14.95;100.00
16194;BME280;8204;53.582;10.080;2022-10-16T04:14:54;98299.09;;;14.93;100.00
16194;BME280;8204;53.582;10.080;2022-10-16T04:17:23;98305.94;;;14.94;100.00
16194;BME280;8204;53.582;10.080;2022-10-16T04:19:52;98315.94;;;14.92;100.00
16194;BME280;8204;53.582;10.080;2022-10-16T04:22:20;98328.09;;;14.93;100.00
16194;BME280;8204;53.582;10.080;2022-10-16T04:24:49;98310.13;;;14.90;100.00
16194;BME280;8204;53.582;10.080;2022-10-16T04:27:18;98326.41;;;14.87;100.00
16194;BME280;8204;53.582;10.080;2022-10-16T04:29:49;98317.47;;;14.88;100.00
16194;BME280;8204;53.582;10.080;2022-10-16T04:32:18;98316.69;;;14.87;100.00
16194;BME280;8204;53.582;10.080;2022-10-16T04:34:47;98320.66;;;14.90;100.00
16194;BME280;8204;53.582;10.080;2022-10-16T04:37:16;98324.84;;;14.86;100.00
16194;BME280;8204;53.582;10.080;2022-10-16T04:39:44;98315.34;;;14.85;100.00
16194;BME280;8204;53.582;10.080;2022-10-16T04:42:13;98333.47;;;14.81;100.00
16194;BME280;8204;53.582;10.080;2022-10-16T04:44:42;98337.22;;;14.85;100.00
16194;BME280;8204;53.582;10.080;2022-10-16T04:47:13;98354.56;;;14.81;100.00
16194;BME280;8204;53.582;10.080;2022-10-16T04:49:42;98345.63;;;14.82;100.00
16194;BME280;8204;53.582;10.080;2022-10-16T04:52:10;98339.22;;;14.78;100.00
16194;BME280;8204;53.582;10.080;2022-10-16T04:54:39;98339.47;;;14.77;100.00
16194;BME280;8204;53.582;10.080;2022-10-16T04:57:11;98332.34;;;14.77;100.00
16194;BME280;8204;53.582;10.080;2022-10-16T04:59:39;98333.63;;;14.75;100.00
16194;BME280;8204;53.582;10.080;2022-10-16T05:02:08;98327.56;;;14.74;100.00
16194;BME280;8204;53.582;10.080;2022-10-16T05:04:39;98318.31;;;14.72;100.00
16194;BME280;8204;53.582;10.080;2022-10-16T05:07:08;98329.34;;;14.69;100.00
16194;BME280;8204;53.582;10.080;2022-10-16T05:09:37;98322.47;;;14.68;100.00
16194;BME280;8204;53.582;10.080;2022-10-16T05:12:06;98331.41;;;14.67;100.00
16194;BME280;8204;53.582;10.080;2022-10-16T05:14:34;98321.69;;;14.67;100.00
16194;BME280;8204;53.582;10.080;2022-10-16T05:17:03;98327.41;;;14.64;100.00
16194;BME280;8204;53.582;10.080;2022-10-16T05:19:32;98330.63;;;14.66;100.00
16194;BME280;8204;53.582;10.080;2022-10-16T05:22:03;98339.81;;;14.64;100.00
16194;BME280;8204;53.582;10.080;2022-10-16T05:24:32;98335.59;;;14.63;100.00
16194;BME280;8204;53.582;10.080;2022-10-16T05:27:01;98330.31;;;14.63;100.00
16194;BME280;8204;53.582;10.080;2022-10-16T05:29:29;98333.66;;;14.58;100.00
16194;BME280;8204;53.582;10.080;2022-10-16T05:31:58;98321.84;;;14.61;100.00
16194;BME280;8204;53.582;10.080;2022-10-16T05:34:27;98328.97;;;14.60;100.00
16194;BME280;8204;53.582;10.080;2022-10-16T05:36:56;98318.66;;;14.59;100.00
16194;BME280;8204;53.582;10.080;2022-10-16T05:39:27;98309.41;;;14.57;100.00
16194;BME280;8204;53.582;10.080;2022-10-16T05:41:56;98312.03;;;14.57;100.00
16194;BME280;8204;53.582;10.080;2022-10-16T05:44:25;98307.50;;;14.52;100.00
16194;BME280;8204;53.582;10.080;2022-10-16T05:46:53;98301.41;;;14.52;100.00
16194;BME280;8204;53.582;10.080;2022-10-16T05:49:22;98281.41;;;14.51;100.00
16194;BME280;8204;53.582;10.080;2022-10-16T05:51:51;98288.47;;;14.50;100.00
16194;BME280;8204;53.582;10.080;2022-10-16T05:54:20;98284.50;;;14.48;100.00
16194;BME280;8204;53.582;10.080;2022-10-16T05:56:51;98277.16;;;14.50;100.00
16194;BME280;8204;53.582;10.080;2022-10-16T05:59:20;98276.34;;;14.49;100.00
16194;BME280;8204;53.582;10.080;2022-10-16T06:01:49;98272.09;;;14.48;100.00
16194;BME280;8204;53.582;10.080;2022-10-16T06:04:19;98269.00;;;14.51;100.00
16194;BME280;8204;53.582;10.080;2022-10-16T06:06:47;98279.53;;;14.51;100.00
16194;BME280;8204;53.582;10.080;2022-10-16T06:09:16;98287.44;;;14.51;100.00
16194;BME280;8204;53.582;10.080;2022-10-16T06:11:45;98280.31;;;14.52;100.00
16194;BME280;8204;53.582;10.080;2022-10-16T06:14:16;98293.28;;;14.53;100.00
16194;BME280;8204;53.582;10.080;2022-10-16T06:16:45;98286.94;;;14.54;100.00
16194;BME280;8204;53.582;10.080;2022-10-16T06:19:14;98287.44;;;14.51;100.00
16194;BME280;8204;53.582;10.080;2022-10-16T06:21:43;98283.28;;;14.55;100.00
16194;BME280;8204;53.582;10.080;2022-10-16T06:24:12;98280.16;;;14.58;100.00
16194;BME280;8204;53.582;10.080;2022-10-16T06:26:41;98281.78;;;14.59;100.00
16194;BME280;8204;53.582;10.080;2022-10-16T06:29:10;98288.81;;;14.54;100.00
16194;BME280;8204;53.582;10.080;2022-10-16T06:31:41;98283.84;;;14.57;100.00
16194;BME280;8204;53.582;10.080;2022-10-16T06:34:10;98293.34;;;14.58;100.00
16194;BME280;8204;53.582;10.080;2022-10-16T06:36:39;98295.47;;;14.61;100.00
16194;BME280;8204;53.582;10.080;2022-10-16T06:39:09;98299.19;;;14.60;100.00
16194;BME280;8204;53.582;10.080;2022-10-16T06:41:37;98290.22;;;14.61;100.00
16194;BME280;8204;53.582;10.080;2022-10-16T06:44:07;98291.81;;;14.62;100.00
16194;BME280;8204;53.582;10.080;2022-10-16T06:46:36;98281.31;;;14.67;100.00
16194;BME280;8204;53.582;10.080;2022-10-16T06:49:07;98281.31;;;14.67;100.00
16194;BME280;8204;53.582;10.080;2022-10-16T06:51:36;98277.66;;;14.68;100.00
16194;BME280;8204;53.582;10.080;2022-10-16T06:54:06;98266.06;;;14.69;100.00
16194;BME280;8204;53.582;10.080;2022-10-16T06:56:35;98278.47;;;14.68;100.00
16194;BME280;8204;53.582;10.080;2022-10-16T06:59:04;98287.47;;;14.72;100.00
16194;BME280;8204;53.582;10.080;2022-10-16T07:01:33;98276.69;;;14.74;100.00
16194;BME280;8204;53.582;10.080;2022-10-16T07:04:02;98273.56;;;14.77;100.00
16194;BME280;8204;53.582;10.080;2022-10-16T07:06:34;98259.59;;;14.76;100.00
16194;BME280;8204;53.582;10.080;2022-10-16T07:09:04;98242.72;;;14.77;100.00
16194;BME280;8204;53.582;10.080;2022-10-16T07:11:34;98235.50;;;14.89;100.00
16194;BME280;8204;53.582;10.080;2022-10-16T07:14:03;98228.94;;;14.92;100.00
16194;BME280;8204;53.582;10.080;2022-10-16T07:16:32;98227.94;;;14.98;100.00
16194;BME280;8204;53.582;10.080;2022-10-16T07:19:02;98224.38;;;15.09;100.00
16194;BME280;8204;53.582;10.080;2022-10-16T07:21:34;98215.59;;;15.03;100.00
16194;BME280;8204;53.582;10.080;2022-10-16T07:24:05;98209.09;;;15.11;100.00
16194;BME280;8204;53.582;10.080;2022-10-16T07:26:36;98203.69;;;15.22;100.00
16194;BME280;8204;53.582;10.080;2022-10-16T07:29:06;98218.69;;;15.22;100.00
16194;BME280;8204;53.582;10.080;2022-10-16T07:31:35;98207.19;;;15.28;100.00
16194;BME280;8204;53.582;10.080;2022-10-16T07:34:04;98212.78;;;15.36;100.00
16194;BME280;8204;53.582;10.080;2022-10-16T07:36:36;98228.19;;;15.44;100.00
16194;BME280;8204;53.582;10.080;2022-10-16T07:39:05;98234.50;;;15.43;100.00
16194;BME280;8204;53.582;10.080;2022-10-16T07:41:34;98247.81;;;15.53;100.00
16194;BME280;8204;53.582;10.080;2022-10-16T07:44:03;98243.31;;;15.53;100.00
16194;BME280;8204;53.582;10.080;2022-10-16T07:46:32;98254.69;;;15.54;100.00
16194;BME280;8204;53.582;10.080;2022-10-16T07:49:02;98270.56;;;15.59;100.00
16194;BME280;8204;53.582;10.080;2022-10-16T07:51:31;98273.28;;;15.69;100.00
16194;BME280;8204;53.582;10.080;2022-10-16T07:54:02;98297.13;;;15.74;100.00
16194;BME280;8204;53.582;10.080;2022-10-16T08:11:56;98346.81;;;16.08;100.00
16194;BME280;8204;53.582;10.080;2022-10-16T08:14:24;98372.13;;;16.04;100.00
16194;BME280;8204;53.582;10.080;2022-10-16T08:16:53;98380.59;;;16.06;100.00
16194;BME280;8204;53.582;10.080;2022-10-16T08:19:22;98389.94;;;16.13;100.00
16194;BME280;8204;53.582;10.080;2022-10-16T08:21:50;98398.91;;;16.12;100.00
16194;BME280;8204;53.582;10.080;2022-10-16T08:24:19;98395.44;;;16.12;100.00
16194;BME280;8204;53.582;10.080;2022-10-16T08:26:48;98425.38;;;16.17;100.00
16194;BME280;8204;53.582;10.080;2022-10-16T08:29:19;98415.59;;;16.18;100.00
16194;BME280;8204;53.582;10.080;2022-10-16T08:31:48;98400.59;;;16.23;100.00
16194;BME280;8204;53.582;10.080;2022-10-16T08:34:17;98417.78;;;16.26;100.00
16194;BME280;8204;53.582;10.080;2022-10-16T08:36:46;98416.50;;;16.28;100.00
16194;BME280;8204;53.582;10.080;2022-10-16T08:39:15;98416.31;;;16.35;100.00
16194;BME280;8204;53.582;10.080;2022-10-16T08:45:06;98450.91;;;16.60;100.00
16194;BME280;8204;53.582;10.080;2022-10-16T08:47:47;98462.84;;;16.67;100.00
16194;BME280;8204;53.582;10.080;2022-10-16T08:50:21;98478.53;;;16.74;100.00
16194;BME280;8204;53.582;10.080;2022-10-16T08:52:54;98520.91;;;16.83;100.00
16194;BME280;8204;53.582;10.080;2022-10-16T08:55:37;98560.66;;;16.88;100.00
16194;BME280;8204;53.582;10.080;2022-10-16T08:58:12;98550.19;;;17.03;100.00
16194;BME280;8204;53.582;10.080;2022-10-16T09:00:47;98580.44;;;17.12;100.00
16194;BME280;8204;53.582;10.080;2022-10-16T09:03:39;98646.09;;;17.15;100.00
16194;BME280;8204;53.582;10.080;2022-10-16T09:06:29;98662.47;;;17.12;100.00
16194;BME280;8204;53.582;10.080;2022-10-16T09:09:16;98650.88;;;17.18;100.00
16194;BME280;8204;53.582;10.080;2022-10-16T09:11:53;98655.19;;;17.24;100.00
16194;BME280;8204;53.582;10.080;2022-10-16T09:14:43;98757.56;;;17.19;100.00
16194;BME280;8204;53.582;10.080;2022-10-16T09:17:34;98764.34;;;17.31;100.00
16194;BME280;8204;53.582;10.080;2022-10-16T09:20:18;98765.38;;;17.30;100.00
16194;BME280;8204;53.582;10.080;2022-10-16T09:22:47;98782.41;;;17.34;100.00
16194;BME280;8204;53.582;10.080;2022-10-16T09:25:20;98823.25;;;17.43;100.00
16194;BME280;8204;53.582;10.080;2022-10-16T09:27:52;98846.47;;;17.36;100.00
16194;BME280;8204;53.582;10.080;2022-10-16T09:30:22;98817.97;;;17.43;100.00
16194;BME280;8204;53.582;10.080;2022-10-16T09:32:54;98859.34;;;17.49;100.00
16194;BME280;8204;53.582;10.080;2022-10-16T09:35:31;98881.94;;;17.57;100.00
16194;BME280;8204;53.582;10.080;2022-10-16T09:38:00;98917.72;;;17.59;100.00
16194;BME280;8204;53.582;10.080;2022-10-16T09:40:31;98921.84;;;17.71;100.00
16194;BME280;8204;53.582;10.080;2022-10-16T09:43:12;98947.34;;;17.77;100.00
16194;BME280;8204;53.582;10.080;2022-10-16T09:45:53;98996.47;;;17.85;100.00
16194;BME280;8204;53.582;10.080;2022-10-16T09:48:27;99073.06;;;17.86;100.00
16194;BME280;8204;53.582;10.080;2022-10-16T09:50:58;99115.47;;;17.86;100.00
16194;BME280;8204;53.582;10.080;2022-10-16T09:53:42;99189.25;;;17.94;100.00
16194;BME280;8204;53.582;10.080;2022-10-16T09:56:20;99220.88;;;18.01;100.00
16194;BME280;8204;53.582;10.080;2022-10-16T09:58:50;99259.69;;;18.07;100.00
16194;BME280;8204;53.582;10.080;2022-10-16T10:01:20;99255.50;;;18.11;100.00
16194;BME280;8204;53.582;10.080;2022-10-16T10:03:57;99282.41;;;18.19;100.00
16194;BME280;8204;53.582;10.080;2022-10-16T10:06:30;99293.28;;;18.18;100.00
16194;BME280;8204;53.582;10.080;2022-10-16T10:09:04;99352.75;;;18.22;100.00
16194;BME280;8204;53.582;10.080;2022-10-16T10:11:38;99361.03;;;18.25;100.00
16194;BME280;8204;53.582;10.080;2022-10-16T10:14:15;99397.13;;;18.26;100.00
16194;BME280;8204;53.582;10.080;2022-10-16T10:16:46;99489.03;;;18.21;100.00
16194;BME280;8204;53.582;10.080;2022-10-16T10:19:20;99449.16;;;18.16;100.00
16194;BME280;8204;53.582;10.080;2022-10-16T10:21:50;99459.28;;;18.19;100.00
16194;BME280;8204;53.582;10.080;2022-10-16T10:24:19;99478.63;;;18.19;100.00
16194;BME280;8204;53.582;10.080;2022-10-16T10:26:53;99469.75;;;18.25;100.00
16194;BME280;8204;53.582;10.080;2022-10-16T10:29:31;99431.88;;;18.41;100.00
16194;BME280;8204;53.582;10.080;2022-10-16T10:32:13;99486.50;;;18.42;100.00
16194;BME280;8204;53.582;10.080;2022-10-16T10:35:01;99503.06;;;18.49;100.00
16194;BME280;8204;53.582;10.080;2022-10-16T10:37:40;99507.66;;;18.53;100.00
16194;BME280;8204;53.582;10.080;2022-10-16T10:40:21;99539.13;;;18.61;100.00
16194;BME280;8204;53.582;10.080;2022-10-16T10:42:58;99579.59;;;18.68;100.00
16194;BME280;8204;53.582;10.080;2022-10-16T10:45:38;99615.72;;;18.69;100.00
16194;BME280;8204;53.582;10.080;2022-10-16T10:48:44;99609.78;;;18.79;100.00
16194;BME280;8204;53.582;10.080;2022-10-16T10:51:23;99629.03;;;18.86;100.00
16194;BME280;8204;53.582;10.080;2022-10-16T10:54:06;99591.16;;;18.90;100.00
16194;BME280;8204;53.582;10.080;2022-10-16T10:56:43;99638.84;;;19.02;100.00
16194;BME280;8204;53.582;10.080;2022-10-16T10:59:22;99807.06;;;18.96;100.00
16194;BME280;8204;53.582;10.080;2022-10-16T11:01:59;99806.88;;;18.97;100.00
16194;BME280;8204;53.582;10.080;2022-10-16T11:04:49;99844.03;;;19.08;100.00
16194;BME280;8204;53.582;10.080;2022-10-16T11:07:28;99891.13;;;19.13;100.00
16194;BME280;8204;53.582;10.080;2022-10-16T11:10:02;99942.88;;;19.22;100.00
16194;BME280;8204;53.582;10.080;2022-10-16T11:12:37;99922.75;;;19.26;100.00
16194;BME280;8204;53.582;10.080;2022-10-16T11:15:13;99943.16;;;19.37;100.00
16194;BME280;8204;53.582;10.080;2022-10-16T11:17:48;99939.34;;;19.56;100.00
16194;BME280;8204;53.582;10.080;2022-10-16T11:20:21;100161.69;;;19.62;100.00
16194;BME280;8204;53.582;10.080;2022-10-16T11:22:56;100126.53;;;19.71;100.00
16194;BME280;8204;53.582;10.080;2022-10-16T11:25:29;100141.22;;;19.96;100.00
16194;BME280;8204;53.582;10.080;2022-10-16T11:28:02;100238.84;;;20.07;100.00
16194;BME280;8204;53.582;10.080;2022-10-16T11:30:40;100291.13;;;20.13;100.00
16194;BME280;8204;53.582;10.080;2022-10-16T11:33:23;100321.31;;;20.07;100.00
16194;BME280;8204;53.582;10.080;2022-10-16T11:36:01;100289.59;;;20.17;100.00
16194;BME280;8204;53.582;10.080;2022-10-16T11:38:38;100382.22;;;19.97;100.00
16194;BME280;8204;53.582;10.080;2022-10-16T11:41:15;100386.06;;;20.13;100.00
16194;BME280;8204;53.582;10.080;2022-10-16T11:43:50;100364.13;;;20.17;100.00
16194;BME280;8204;53.582;10.080;2022-10-16T11:46:23;100383.66;;;20.11;100.00
16194;BME280;8204;53.582;10.080;2022-10-16T11:48:59;100400.66;;;20.10;100.00
16194;BME280;8204;53.582;10.080;2022-10-16T11:51:33;100421.34;;;20.08;100.00
16194;BME280;8204;53.582;10.080;2022-10-16T11:54:16;100410.50;;;20.10;100.00
16194;BME280;8204;53.582;10.080;2022-10-16T11:56:53;100387.81;;;20.07;100.00
16194;BME280;8204;53.582;10.080;2022-10-16T11:59:28;100362.69;;;20.03;100.00
16194;BME280;8204;53.582;10.080;2022-10-16T12:02:21;100369.31;;;20.12;100.00
16194;BME280;8204;53.582;10.080;2022-10-16T12:05:17;100349.50;;;20.08;100.00
16194;BME280;8204;53.582;10.080;2022-10-16T12:07:54;100403.16;;;19.94;100.00
16194;BME280;8204;53.582;10.080;2022-10-16T12:10:27;100369.78;;;19.80;100.00
16194;BME280;8204;53.582;10.080;2022-10-16T12:12:57;100391.25;;;19.96;100.00
16194;BME280;8204;53.582;10.080;2022-10-16T12:15:28;100432.44;;;20.05;100.00
16194;BME280;8204;53.582;10.080;2022-10-16T12:17:58;100430.28;;;20.14;100.00
16194;BME280;8204;53.582;10.080;2022-10-16T12:20:32;100493.63;;;20.35;100.00
16194;BME280;8204;53.582;10.080;2022-10-16T12:23:04;100565.91;;;20.61;100.00
16194;BME280;8204;53.582;10.080;2022-10-16T12:25:34;100638.63;;;20.79;100.00
16194;BME280;8204;53.582;10.080;2022-10-16T12:28:19;100711.88;;;21.00;100.00
16194;BME280;8204;53.582;10.080;2022-10-16T12:30:53;100757.47;;;21.10;100.00
16194;BME280;8204;53.582;10.080;2022-10-16T12:33:24;100764.56;;;21.16;100.00
16194;BME280;8204;53.582;10.080;2022-10-16T12:35:57;100796.59;;;21.27;100.00
16194;BME280;8204;53.582;10.080;2022-10-16T12:38:45;100796.31;;;21.46;100.00
16194;BME280;8204;53.582;10.080;2022-10-16T12:41:25;100808.78;;;21.64;100.00
16194;BME280;8204;53.582;10.080;2022-10-16T12:43:54;100867.03;;;21.67;100.00
16194;BME280;8204;53.582;10.080;2022-10-16T12:46:37;100841.44;;;21.89;100.00
16194;BME280;8204;53.582;10.080;2022-10-16T12:49:28;100912.13;;;21.98;100.00
16194;BME280;8204;53.582;10.080;2022-10-16T12:52:00;100953.69;;;21.94;100.00
16194;BME280;8204;53.582;10.080;2022-10-16T12:54:30;100929.53;;;22.00;100.00
16194;BME280;8204;53.582;10.080;2022-10-16T12:57:10;100932.38;;;22.16;100.00
16194;BME280;8204;53.582;10.080;2022-10-16T12:59:46;100937.75;;;22.28;100.00
16194;BME280;8204;53.582;10.080;2022-10-16T13:02:40;100986.41;;;22.30;100.00
16194;BME280;8204;53.582;10.080;2022-10-16T13:05:25;101001.84;;;22.28;100.00
16194;BME280;8204;53.582;10.080;2022-10-16T13:08:05;101007.06;;;22.23;100.00
16194;BME280;8204;53.582;10.080;2022-10-16T13:10:45;101029.09;;;22.18;100.00
16194;BME280;8204;53.582;10.080;2022-10-16T13:13:31;101018.09;;;22.26;100.00
16194;BME280;8204;53.582;10.080;2022-10-16T13:16:11;101023.19;;;22.28;100.00
16194;BME280;8204;53.582;10.080;2022-10-16T13:18:52;101032.16;;;22.33;100.00
16194;BME280;8204;53.582;10.080;2022-10-16T13:21:33;101038.94;;;22.36;100.00
16194;BME280;8204;53.582;10.080;2022-10-16T13:24:16;101015.06;;;22.52;100.00
16194;BME280;8204;53.582;10.080;2022-10-16T13:26:49;101051.50;;;22.47;100.00
16194;BME280;8204;53.582;10.080;2022-10-16T13:29:22;101051.03;;;22.50;100.00
16194;BME280;8204;53.582;10.080;2022-10-16T13:31:50;101062.19;;;22.47;100.00
16194;BME280;8204;53.582;10.080;2022-10-16T13:34:21;101070.31;;;22.52;100.00
16194;BME280;8204;53.582;10.080;2022-10-16T13:36:52;101092.16;;;22.49;100.00
16194;BME280;8204;53.582;10.080;2022-10-16T13:39:25;101088.72;;;22.60;100.00